sensor_id;sensor_type;location;lat;lon;timestamp;pressure;altitude;pressure_sealevel;temperature;humidity
47430;BME280;33181;49.246;7.372;2023-09-19T00:00:23;98388.63;;;16.96;100.00
47430;BME280;33181;49.246;7.372;2023-09-19T00:02:56;98385.81;;;16.89;100.00
47430;BME280;33181;49.246;7.372;2023-09-19T00:05:26;98388.63;;;16.88;100.00
47430;BME280;33181;49.246;7.372;2023-09-19T00:07:55;98395.31;;;16.84;100.00
47430;BME280;33181;49.246;7.372;2023-09-19T00:10:26;98390.63;;;16.86;100.00
47430;BME280;33181;49.246;7.372;2023-09-19T00:12:55;98398.44;;;16.87;100.00
47430;BME280;33181;49.246;7.372;2023-09-19T00:15:25;98394.63;;;16.90;100.00
47430;BME280;33181;49.246;7.372;2023-09-19T00:17:55;98405.16;;;16.98;100.00
47430;BME280;33181;49.246;7.372;2023-09-19T00:20:21;98404.53;;;16.96;100.00
47430;BME280;33181;49.246;7.372;2023-09-19T00:22:49;98406.34;;;16.96;100.00
47430;BME280;33181;49.246;7.372;2023-09-19T00:25:20;98408.84;;;16.89;100.00
47430;BME280;33181;49.246;7.372;2023-09-19T00:27:47;98396.41;;;16.89;100.00
47430;BME280;33181;49.246;7.372;2023-09-19T00:30:17;98409.00;;;16.96;100.00
47430;BME280;33181;49.246;7.372;2023-09-19T00:32:47;98408.84;;;16.97;100.00
47430;BME280;33181;49.246;7.372;2023-09-19T00:35:15;98410.69;;;16.88;100.00
47430;BME280;33181;49.246;7.372;2023-09-19T00:37:42;98414.50;;;16.94;100.00
47430;BME280;33181;49.246;7.372;2023-09-19T00:40:09;98416.94;;;16.96;100.00
47430;BME280;33181;49.246;7.372;2023-09-19T00:42:39;98417.28;;;17.01;100.00
47430;BME280;33181;49.246;7.372;2023-09-19T00:45:07;98426.03;;;17.09;100.00
47430;BME280;33181;49.246;7.372;2023-09-19T00:47:36;98423.75;;;16.98;100.00
47430;BME280;33181;49.246;7.372;2023-09-19T00:50:05;98422.38;;;17.02;100.00
47430;BME280;33181;49.246;7.372;2023-09-19T00:52:36;98432.09;;;16.87;100.00
47430;BME280;33181;49.246;7.372;2023-09-19T00:55:06;98433.22;;;16.92;100.00
47430;BME280;33181;49.246;7.372;2023-09-19T00:57:33;98435.72;;;16.94;100.00
47430;BME280;33181;49.246;7.372;2023-09-19T01:00:01;98433.00;;;17.02;100.00
47430;BME280;33181;49.246;7.372;2023-09-19T01:02:33;98433.41;;;16.91;100.00
47430;BME280;33181;49.246;7.372;2023-09-19T01:05:00;98428.25;;;16.89;100.00
47430;BME280;33181;49.246;7.372;2023-09-19T01:07:27;98432.13;;;16.79;100.00
47430;BME280;33181;49.246;7.372;2023-09-19T01:10:02;98436.06;;;16.83;99.82
47430;BME280;33181;49.246;7.372;2023-09-19T01:15:38;98445.22;;;16.64;98.59
47430;BME280;33181;49.246;7.372;2023-09-19T01:21:39;98457.69;;;16.55;97.62
47430;BME280;33181;49.246;7.372;2023-09-19T01:30:19;98468.13;;;16.49;99.31
47430;BME280;33181;49.246;7.372;2023-09-19T01:32:52;98474.56;;;16.54;98.51
47430;BME280;33181;49.246;7.372;2023-09-19T01:35:18;98473.75;;;16.54;98.26
47430;BME280;33181;49.246;7.372;2023-09-19T01:37:44;98475.22;;;16.64;97.60
47430;BME280;33181;49.246;7.372;2023-09-19T01:40:14;98488.81;;;16.69;97.21
47430;BME280;33181;49.246;7.372;2023-09-19T01:46:09;98490.00;;;16.75;97.72
47430;BME280;33181;49.246;7.372;2023-09-19T01:48:52;98490.31;;;16.80;97.37
47430;BME280;33181;49.246;7.372;2023-09-19T01:52:00;98495.09;;;16.85;97.38
47430;BME280;33181;49.246;7.372;2023-09-19T01:54:41;98498.03;;;16.98;96.90
47430;BME280;33181;49.246;7.372;2023-09-19T01:57:29;98491.72;;;17.07;96.31
47430;BME280;33181;49.246;7.372;2023-09-19T02:00:09;98491.09;;;16.97;95.35
47430;BME280;33181;49.246;7.372;2023-09-19T02:02:39;98489.78;;;16.93;96.96
47430;BME280;33181;49.246;7.372;2023-09-19T02:05:06;98502.00;;;17.02;96.71
47430;BME280;33181;49.246;7.372;2023-09-19T02:07:32;98504.31;;;17.05;96.48
47430;BME280;33181;49.246;7.372;2023-09-19T02:09:59;98499.34;;;17.10;96.33
47430;BME280;33181;49.246;7.372;2023-09-19T02:12:28;98509.59;;;17.13;95.91
47430;BME280;33181;49.246;7.372;2023-09-19T02:14:56;98504.66;;;17.02;97.01
47430;BME280;33181;49.246;7.372;2023-09-19T02:17:23;98516.81;;;16.97;97.83
47430;BME280;33181;49.246;7.372;2023-09-19T02:19:54;98521.63;;;16.93;98.37
47430;BME280;33181;49.246;7.372;2023-09-19T02:22:21;98509.81;;;17.04;98.30
47430;BME280;33181;49.246;7.372;2023-09-19T02:24:50;98513.00;;;16.99;98.43
47430;BME280;33181;49.246;7.372;2023-09-19T02:27:16;98513.75;;;17.08;98.38
47430;BME280;33181;49.246;7.372;2023-09-19T02:29:43;98515.78;;;17.06;98.36
47430;BME280;33181;49.246;7.372;2023-09-19T02:32:09;98516.25;;;17.09;98.12
47430;BME280;33181;49.246;7.372;2023-09-19T02:34:36;98524.19;;;17.18;97.85
47430;BME280;33181;49.246;7.372;2023-09-19T02:37:04;98521.88;;;17.14;97.74
47430;BME280;33181;49.246;7.372;2023-09-19T02:39:32;98525.53;;;17.05;97.96
47430;BME280;33181;49.246;7.372;2023-09-19T02:41:58;98528.53;;;17.02;98.16
47430;BME280;33181;49.246;7.372;2023-09-19T02:44:24;98528.88;;;17.07;97.38
47430;BME280;33181;49.246;7.372;2023-09-19T02:46:50;98523.28;;;16.94;97.33
47430;BME280;33181;49.246;7.372;2023-09-19T02:49:16;98525.97;;;16.78;97.90
47430;BME280;33181;49.246;7.372;2023-09-19T02:51:44;98531.91;;;16.88;97.59
47430;BME280;33181;49.246;7.372;2023-09-19T02:54:10;98535.56;;;16.87;97.03
47430;BME280;33181;49.246;7.372;2023-09-19T02:56:37;98536.88;;;16.75;96.89
47430;BME280;33181;49.246;7.372;2023-09-19T02:59:03;98533.41;;;16.74;96.76
47430;BME280;33181;49.246;7.372;2023-09-19T03:01:29;98539.19;;;16.69;96.26
47430;BME280;33181;49.246;7.372;2023-09-19T03:03:55;98537.22;;;16.72;96.15
47430;BME280;33181;49.246;7.372;2023-09-19T03:06:21;98523.28;;;16.69;95.67
47430;BME280;33181;49.246;7.372;2023-09-19T03:08:48;98537.41;;;16.54;96.19
47430;BME280;33181;49.246;7.372;2023-09-19T03:11:15;98536.25;;;16.56;96.31
47430;BME280;33181;49.246;7.372;2023-09-19T03:13:44;98540.88;;;16.62;95.74
47430;BME280;33181;49.246;7.372;2023-09-19T03:16:11;98545.84;;;16.57;95.17
47430;BME280;33181;49.246;7.372;2023-09-19T03:18:37;98540.38;;;16.59;95.06
47430;BME280;33181;49.246;7.372;2023-09-19T03:21:03;98545.69;;;16.42;95.57
47430;BME280;33181;49.246;7.372;2023-09-19T03:23:29;98542.22;;;16.50;95.26
47430;BME280;33181;49.246;7.372;2023-09-19T03:25:56;98551.13;;;16.33;95.63
47430;BME280;33181;49.246;7.372;2023-09-19T03:28:22;98553.31;;;16.21;96.00
47430;BME280;33181;49.246;7.372;2023-09-19T03:31:06;98543.84;;;16.27;95.51
47430;BME280;33181;49.246;7.372;2023-09-19T03:33:32;98549.69;;;16.30;94.88
47430;BME280;33181;49.246;7.372;2023-09-19T03:36:02;98541.19;;;16.27;94.88
47430;BME280;33181;49.246;7.372;2023-09-19T03:38:32;98548.34;;;16.18;94.44
47430;BME280;33181;49.246;7.372;2023-09-19T03:41:00;98544.88;;;16.17;94.45
47430;BME280;33181;49.246;7.372;2023-09-19T03:43:26;98546.84;;;16.24;94.48
47430;BME280;33181;49.246;7.372;2023-09-19T03:45:53;98548.50;;;16.33;93.97
47430;BME280;33181;49.246;7.372;2023-09-19T03:48:20;98554.81;;;16.40;93.48
47430;BME280;33181;49.246;7.372;2023-09-19T03:50:47;98556.28;;;16.34;92.93
47430;BME280;33181;49.246;7.372;2023-09-19T03:53:13;98557.28;;;16.33;92.60
47430;BME280;33181;49.246;7.372;2023-09-19T03:55:39;98553.78;;;16.33;91.94
47430;BME280;33181;49.246;7.372;2023-09-19T03:58:05;98558.44;;;16.22;91.88
47430;BME280;33181;49.246;7.372;2023-09-19T04:00:32;98559.28;;;16.31;91.54
47430;BME280;33181;49.246;7.372;2023-09-19T04:02:57;98560.28;;;16.30;91.51
47430;BME280;33181;49.246;7.372;2023-09-19T04:05:24;98562.75;;;16.32;91.54
47430;BME280;33181;49.246;7.372;2023-09-19T04:07:49;98566.91;;;16.34;91.38
47430;BME280;33181;49.246;7.372;2023-09-19T04:10:16;98564.59;;;16.39;90.99
47430;BME280;33181;49.246;7.372;2023-09-19T04:12:56;98564.56;;;16.31;90.64
47430;BME280;33181;49.246;7.372;2023-09-19T04:15:23;98567.03;;;16.33;90.86
47430;BME280;33181;49.246;7.372;2023-09-19T04:17:50;98566.72;;;16.36;90.29
47430;BME280;33181;49.246;7.372;2023-09-19T04:20:18;98565.88;;;16.35;89.80
47430;BME280;33181;49.246;7.372;2023-09-19T04:22:46;98576.16;;;16.38;89.99
47430;BME280;33181;49.246;7.372;2023-09-19T04:25:12;98575.34;;;16.38;89.69
47430;BME280;33181;49.246;7.372;2023-09-19T04:27:38;98575.34;;;16.38;89.91
47430;BME280;33181;49.246;7.372;2023-09-19T04:30:06;98568.06;;;16.40;89.88
47430;BME280;33181;49.246;7.372;2023-09-19T04:32:38;98574.03;;;16.34;89.69
47430;BME280;33181;49.246;7.372;2023-09-19T04:35:08;98579.47;;;16.24;90.45
47430;BME280;33181;49.246;7.372;2023-09-19T04:37:43;98574.66;;;16.11;91.39
47430;BME280;33181;49.246;7.372;2023-09-19T04:40:09;98572.31;;;16.00;92.36
47430;BME280;33181;49.246;7.372;2023-09-19T04:42:53;98566.34;;;15.90;93.10
47430;BME280;33181;49.246;7.372;2023-09-19T04:45:23;98570.63;;;15.91;93.43
47430;BME280;33181;49.246;7.372;2023-09-19T04:47:49;98575.44;;;15.87;93.72
47430;BME280;33181;49.246;7.372;2023-09-19T04:50:15;98576.25;;;15.80;94.06
47430;BME280;33181;49.246;7.372;2023-09-19T04:52:43;98580.56;;;15.81;94.55
47430;BME280;33181;49.246;7.372;2023-09-19T04:55:14;98583.03;;;15.74;94.85
47430;BME280;33181;49.246;7.372;2023-09-19T04:57:50;98588.97;;;15.68;95.35
47430;BME280;33181;49.246;7.372;2023-09-19T05:00:18;98575.19;;;15.64;95.71
47430;BME280;33181;49.246;7.372;2023-09-19T05:02:45;98571.25;;;15.68;95.58
47430;BME280;33181;49.246;7.372;2023-09-19T05:05:11;98580.38;;;15.74;95.19
47430;BME280;33181;49.246;7.372;2023-09-19T05:07:41;98584.47;;;15.68;95.34
47430;BME280;33181;49.246;7.372;2023-09-19T05:10:08;98587.16;;;15.77;95.26
47430;BME280;33181;49.246;7.372;2023-09-19T05:12:35;98599.16;;;15.63;95.06
47430;BME280;33181;49.246;7.372;2023-09-19T05:15:05;98599.28;;;15.53;96.19
47430;BME280;33181;49.246;7.372;2023-09-19T05:17:33;98599.66;;;15.66;95.81
47430;BME280;33181;49.246;7.372;2023-09-19T05:20:03;98601.69;;;15.72;95.36
47430;BME280;33181;49.246;7.372;2023-09-19T05:22:35;98604.53;;;15.71;95.31
47430;BME280;33181;49.246;7.372;2023-09-19T05:25:00;98604.22;;;15.74;95.37
47430;BME280;33181;49.246;7.372;2023-09-19T05:27:29;98598.91;;;15.74;95.56
47430;BME280;33181;49.246;7.372;2023-09-19T05:29:56;98604.13;;;15.58;96.42
47430;BME280;33181;49.246;7.372;2023-09-19T05:32:22;98611.00;;;15.42;98.08
47430;BME280;33181;49.246;7.372;2023-09-19T05:34:48;98621.97;;;15.56;97.80
47430;BME280;33181;49.246;7.372;2023-09-19T05:37:13;98621.66;;;15.59;97.29
47430;BME280;33181;49.246;7.372;2023-09-19T05:39:42;98627.41;;;15.54;98.26
47430;BME280;33181;49.246;7.372;2023-09-19T05:42:08;98627.56;;;15.52;98.09
47430;BME280;33181;49.246;7.372;2023-09-19T05:44:34;98635.97;;;15.40;98.19
47430;BME280;33181;49.246;7.372;2023-09-19T05:47:00;98627.94;;;15.58;97.60
47430;BME280;33181;49.246;7.372;2023-09-19T05:49:26;98641.09;;;15.67;97.24
47430;BME280;33181;49.246;7.372;2023-09-19T05:51:52;98632.84;;;15.79;96.62
47430;BME280;33181;49.246;7.372;2023-09-19T05:54:24;98638.63;;;15.74;95.99
47430;BME280;33181;49.246;7.372;2023-09-19T05:56:50;98643.13;;;15.82;95.32
47430;BME280;33181;49.246;7.372;2023-09-19T05:59:19;98642.66;;;15.86;95.31
47430;BME280;33181;49.246;7.372;2023-09-19T06:01:47;98651.06;;;15.82;94.81
47430;BME280;33181;49.246;7.372;2023-09-19T06:04:12;98642.34;;;15.89;94.50
47430;BME280;33181;49.246;7.372;2023-09-19T06:06:38;98659.19;;;15.88;94.05
47430;BME280;33181;49.246;7.372;2023-09-19T06:09:06;98656.59;;;15.96;93.90
47430;BME280;33181;49.246;7.372;2023-09-19T06:11:34;98665.72;;;16.02;93.10
47430;BME280;33181;49.246;7.372;2023-09-19T06:14:04;98657.47;;;16.13;92.64
47430;BME280;33181;49.246;7.372;2023-09-19T06:16:30;98657.63;;;16.12;92.73
47430;BME280;33181;49.246;7.372;2023-09-19T06:18:58;98664.41;;;16.06;92.25
47430;BME280;33181;49.246;7.372;2023-09-19T06:21:29;98667.81;;;15.90;92.12
47430;BME280;33181;49.246;7.372;2023-09-19T06:23:55;98663.03;;;15.94;92.26
47430;BME280;33181;49.246;7.372;2023-09-19T06:26:21;98665.72;;;16.10;91.85
47430;BME280;33181;49.246;7.372;2023-09-19T06:28:46;98662.75;;;16.13;91.63
47430;BME280;33181;49.246;7.372;2023-09-19T06:31:13;98668.91;;;15.71;91.23
47430;BME280;33181;49.246;7.372;2023-09-19T06:33:38;98669.28;;;15.85;92.10
47430;BME280;33181;49.246;7.372;2023-09-19T06:36:08;98665.91;;;16.09;92.02
47430;BME280;33181;49.246;7.372;2023-09-19T06:38:34;98675.38;;;16.11;90.13
47430;BME280;33181;49.246;7.372;2023-09-19T06:41:02;98665.41;;;16.13;89.87
47430;BME280;33181;49.246;7.372;2023-09-19T06:43:34;98673.22;;;16.23;90.00
47430;BME280;33181;49.246;7.372;2023-09-19T06:46:01;98676.72;;;16.32;89.71
47430;BME280;33181;49.246;7.372;2023-09-19T06:48:27;98683.81;;;16.23;87.72
47430;BME280;33181;49.246;7.372;2023-09-19T06:50:56;98684.69;;;16.24;88.29
47430;BME280;33181;49.246;7.372;2023-09-19T06:53:24;98688.16;;;16.32;88.24
47430;BME280;33181;49.246;7.372;2023-09-19T06:55:51;98691.53;;;16.42;87.61
47430;BME280;33181;49.246;7.372;2023-09-19T06:58:17;98692.50;;;16.33;86.24
47430;BME280;33181;49.246;7.372;2023-09-19T07:00:42;98704.72;;;16.26;87.21
47430;BME280;33181;49.246;7.372;2023-09-19T07:03:10;98706.97;;;16.05;86.54
47430;BME280;33181;49.246;7.372;2023-09-19T07:05:39;98709.81;;;16.11;87.49
47430;BME280;33181;49.246;7.372;2023-09-19T07:08:07;98709.88;;;16.36;87.79
47430;BME280;33181;49.246;7.372;2023-09-19T07:10:34;98729.78;;;16.48;86.96
47430;BME280;33181;49.246;7.372;2023-09-19T07:13:02;98728.03;;;16.73;86.53
47430;BME280;33181;49.246;7.372;2023-09-19T07:15:32;98746.31;;;16.84;84.97
47430;BME280;33181;49.246;7.372;2023-09-19T07:17:59;98743.31;;;16.20;83.50
47430;BME280;33181;49.246;7.372;2023-09-19T07:20:27;98739.34;;;16.33;83.48
47430;BME280;33181;49.246;7.372;2023-09-19T07:22:54;98742.22;;;16.39;83.04
47430;BME280;33181;49.246;7.372;2023-09-19T07:25:26;98754.69;;;16.63;82.83
47430;BME280;33181;49.246;7.372;2023-09-19T07:27:52;98752.28;;;16.95;81.95
47430;BME280;33181;49.246;7.372;2023-09-19T07:30:17;98750.31;;;16.80;80.19
47430;BME280;33181;49.246;7.372;2023-09-19T07:32:43;98757.44;;;16.88;80.22
47430;BME280;33181;49.246;7.372;2023-09-19T07:35:09;98761.25;;;17.02;79.45
47430;BME280;33181;49.246;7.372;2023-09-19T07:37:35;98760.59;;;17.08;79.38
47430;BME280;33181;49.246;7.372;2023-09-19T07:40:03;98763.75;;;17.44;79.26
47430;BME280;33181;49.246;7.372;2023-09-19T07:42:37;98767.38;;;17.68;76.26
47430;BME280;33181;49.246;7.372;2023-09-19T07:45:08;98772.69;;;17.76;75.50
47430;BME280;33181;49.246;7.372;2023-09-19T07:47:35;98764.22;;;17.72;74.13
47430;BME280;33181;49.246;7.372;2023-09-19T07:50:02;98769.03;;;17.77;74.46
47430;BME280;33181;49.246;7.372;2023-09-19T07:52:29;98769.91;;;17.53;72.68
47430;BME280;33181;49.246;7.372;2023-09-19T07:54:55;98780.19;;;17.40;73.94
47430;BME280;33181;49.246;7.372;2023-09-19T07:57:22;98777.00;;;17.52;75.31
47430;BME280;33181;49.246;7.372;2023-09-19T07:59:48;98783.00;;;17.46;75.11
47430;BME280;33181;49.246;7.372;2023-09-19T08:02:14;98791.81;;;17.22;73.94
47430;BME280;33181;49.246;7.372;2023-09-19T08:04:45;98787.97;;;17.33;74.55
47430;BME280;33181;49.246;7.372;2023-09-19T08:07:14;98789.31;;;17.37;73.75
47430;BME280;33181;49.246;7.372;2023-09-19T08:09:40;98789.63;;;17.18;73.98
47430;BME280;33181;49.246;7.372;2023-09-19T08:12:07;98793.97;;;17.19;73.89
47430;BME280;33181;49.246;7.372;2023-09-19T08:14:36;98800.59;;;17.31;73.55
47430;BME280;33181;49.246;7.372;2023-09-19T08:17:03;98796.59;;;17.51;73.98
47430;BME280;33181;49.246;7.372;2023-09-19T08:19:31;98793.94;;;17.76;74.24
47430;BME280;33181;49.246;7.372;2023-09-19T08:21:58;98800.41;;;17.73;71.65
47430;BME280;33181;49.246;7.372;2023-09-19T08:24:28;98794.22;;;18.05;71.14
47430;BME280;33181;49.246;7.372;2023-09-19T08:26:55;98797.34;;;18.17;70.01
47430;BME280;33181;49.246;7.372;2023-09-19T08:29:23;98790.16;;;18.65;68.68
47430;BME280;33181;49.246;7.372;2023-09-19T08:31:56;98797.94;;;18.75;67.63
47430;BME280;33181;49.246;7.372;2023-09-19T08:34:24;98802.66;;;19.19;67.11
47430;BME280;33181;49.246;7.372;2023-09-19T08:36:54;98800.31;;;19.24;64.44
47430;BME280;33181;49.246;7.372;2023-09-19T08:39:24;98804.00;;;19.23;63.79
47430;BME280;33181;49.246;7.372;2023-09-19T08:42:00;98796.03;;;19.38;63.56
47430;BME280;33181;49.246;7.372;2023-09-19T08:44:27;98802.66;;;19.19;62.78
47430;BME280;33181;49.246;7.372;2023-09-19T08:47:13;98805.72;;;18.85;64.72
47430;BME280;33181;49.246;7.372;2023-09-19T08:50:08;98810.53;;;18.89;64.00
47430;BME280;33181;49.246;7.372;2023-09-19T08:52:43;98804.06;;;18.84;64.39
47430;BME280;33181;49.246;7.372;2023-09-19T08:55:13;98801.72;;;18.89;64.02
47430;BME280;33181;49.246;7.372;2023-09-19T08:57:46;98809.13;;;19.02;64.68
47430;BME280;33181;49.246;7.372;2023-09-19T09:00:15;98811.09;;;19.08;63.61
47430;BME280;33181;49.246;7.372;2023-09-19T09:02:43;98800.66;;;19.21;62.76
47430;BME280;33181;49.246;7.372;2023-09-19T09:05:11;98811.75;;;19.33;63.23
47430;BME280;33181;49.246;7.372;2023-09-19T09:07:41;98810.72;;;19.34;62.32
47430;BME280;33181;49.246;7.372;2023-09-19T09:10:07;98808.69;;;19.59;62.66
47430;BME280;33181;49.246;7.372;2023-09-19T09:12:34;98809.13;;;19.85;62.42
47430;BME280;33181;49.246;7.372;2023-09-19T09:15:03;98804.06;;;19.76;63.36
47430;BME280;33181;49.246;7.372;2023-09-19T09:17:30;98805.69;;;19.39;62.48
47430;BME280;33181;49.246;7.372;2023-09-19T09:19:56;98812.81;;;19.24;63.14
47430;BME280;33181;49.246;7.372;2023-09-19T09:22:22;98808.19;;;19.17;64.05
47430;BME280;33181;49.246;7.372;2023-09-19T09:24:57;98810.03;;;19.17;64.76
47430;BME280;33181;49.246;7.372;2023-09-19T09:27:24;98808.66;;;19.21;64.18
47430;BME280;33181;49.246;7.372;2023-09-19T09:29:51;98817.31;;;19.23;64.87
47430;BME280;33181;49.246;7.372;2023-09-19T09:32:31;98813.28;;;19.04;64.69
47430;BME280;33181;49.246;7.372;2023-09-19T09:35:02;98808.22;;;19.09;64.79
47430;BME280;33181;49.246;7.372;2023-09-19T09:37:35;98810.84;;;19.17;64.82
47430;BME280;33181;49.246;7.372;2023-09-19T09:40:05;98816.09;;;19.26;64.44
47430;BME280;33181;49.246;7.372;2023-09-19T09:42:53;98809.47;;;19.21;63.30
47430;BME280;33181;49.246;7.372;2023-09-19T09:45:24;98809.31;;;19.23;64.16
47430;BME280;33181;49.246;7.372;2023-09-19T09:48:16;98821.25;;;19.50;64.49
47430;BME280;33181;49.246;7.372;2023-09-19T09:51:02;98803.34;;;19.59;63.14
47430;BME280;33181;49.246;7.372;2023-09-19T09:53:30;98801.00;;;19.64;62.65
47430;BME280;33181;49.246;7.372;2023-09-19T09:56:04;98810.84;;;19.40;63.74
47430;BME280;33181;49.246;7.372;2023-09-19T09:58:37;98806.53;;;19.39;63.10
47430;BME280;33181;49.246;7.372;2023-09-19T10:01:04;98803.84;;;19.39;61.15
47430;BME280;33181;49.246;7.372;2023-09-19T10:03:40;98803.50;;;19.19;61.77
47430;BME280;33181;49.246;7.372;2023-09-19T10:06:14;98788.66;;;19.02;63.48
47430;BME280;33181;49.246;7.372;2023-09-19T10:09:05;98788.47;;;19.04;62.92
47430;BME280;33181;49.246;7.372;2023-09-19T10:11:46;98795.56;;;19.34;62.89
47430;BME280;33181;49.246;7.372;2023-09-19T10:14:16;98787.97;;;19.46;62.15
47430;BME280;33181;49.246;7.372;2023-09-19T10:16:49;98799.34;;;19.40;63.06
47430;BME280;33181;49.246;7.372;2023-09-19T10:19:24;98790.91;;;19.51;62.87
47430;BME280;33181;49.246;7.372;2023-09-19T10:21:55;98793.84;;;19.79;62.29
47430;BME280;33181;49.246;7.372;2023-09-19T10:24:23;98799.28;;;19.71;61.45
47430;BME280;33181;49.246;7.372;2023-09-19T10:26:53;98785.88;;;19.94;61.00
47430;BME280;33181;49.246;7.372;2023-09-19T10:29:21;98792.59;;;20.05;61.20
47430;BME280;33181;49.246;7.372;2023-09-19T10:31:48;98792.41;;;19.91;60.81
47430;BME280;33181;49.246;7.372;2023-09-19T10:34:17;98787.59;;;19.72;61.56
47430;BME280;33181;49.246;7.372;2023-09-19T10:36:46;98786.72;;;19.80;61.52
47430;BME280;33181;49.246;7.372;2023-09-19T10:39:16;98778.47;;;19.66;61.63
47430;BME280;33181;49.246;7.372;2023-09-19T10:41:56;98775.22;;;19.94;60.77
47430;BME280;33181;49.246;7.372;2023-09-19T10:44:25;98771.72;;;20.08;59.99
47430;BME280;33181;49.246;7.372;2023-09-19T10:46:54;98772.53;;;20.38;60.25
47430;BME280;33181;49.246;7.372;2023-09-19T10:49:21;98766.31;;;20.68;58.79
47430;BME280;33181;49.246;7.372;2023-09-19T10:51:52;98773.44;;;20.46;58.23
47430;BME280;33181;49.246;7.372;2023-09-19T10:54:21;98781.47;;;20.31;59.19
47430;BME280;33181;49.246;7.372;2023-09-19T10:56:50;98775.03;;;20.25;59.77
47430;BME280;33181;49.246;7.372;2023-09-19T10:59:19;98765.16;;;20.41;59.85
47430;BME280;33181;49.246;7.372;2023-09-19T11:01:55;98762.38;;;20.49;58.89
47430;BME280;33181;49.246;7.372;2023-09-19T11:04:34;98757.53;;;20.89;57.94
47430;BME280;33181;49.246;7.372;2023-09-19T11:07:11;98763.44;;;21.27;56.38
47430;BME280;33181;49.246;7.372;2023-09-19T11:09:54;98763.44;;;21.48;55.69
47430;BME280;33181;49.246;7.372;2023-09-19T11:15:02;98738.34;;;22.12;53.56
47430;BME280;33181;49.246;7.372;2023-09-19T11:17:42;98740.06;;;21.57;53.44
47430;BME280;33181;49.246;7.372;2023-09-19T11:30:47;98731.19;;;22.67;53.63
47430;BME280;33181;49.246;7.372;2023-09-19T11:36:10;98728.94;;;22.91;51.67
47430;BME280;33181;49.246;7.372;2023-09-19T11:46:27;98715.34;;;22.79;50.43
47430;BME280;33181;49.246;7.372;2023-09-19T11:48:54;98710.53;;;22.41;51.50
47430;BME280;33181;49.246;7.372;2023-09-19T11:51:24;98710.84;;;22.25;50.42
47430;BME280;33181;49.246;7.372;2023-09-19T11:53:55;98714.22;;;22.06;52.12
47430;BME280;33181;49.246;7.372;2023-09-19T11:56:26;98711.31;;;22.35;52.17
47430;BME280;33181;49.246;7.372;2023-09-19T11:58:55;98714.44;;;22.52;52.84
47430;BME280;33181;49.246;7.372;2023-09-19T12:01:24;98715.91;;;22.61;51.62
47430;BME280;33181;49.246;7.372;2023-09-19T12:03:58;98699.88;;;22.75;51.53
47430;BME280;33181;49.246;7.372;2023-09-19T12:06:26;98715.75;;;22.83;51.86
47430;BME280;33181;49.246;7.372;2023-09-19T12:08:52;98717.59;;;22.76;51.74
47430;BME280;33181;49.246;7.372;2023-09-19T12:11:22;98714.88;;;22.62;51.73
47430;BME280;33181;49.246;7.372;2023-09-19T12:13:49;98713.91;;;22.83;51.29
47430;BME280;33181;49.246;7.372;2023-09-19T12:16:20;98715.13;;;22.87;50.33
47430;BME280;33181;49.246;7.372;2023-09-19T12:18:50;98715.41;;;22.99;50.75
47430;BME280;33181;49.246;7.372;2023-09-19T12:21:26;98708.75;;;22.88;50.37
47430;BME280;33181;49.246;7.372;2023-09-19T12:24:13;98715.41;;;22.38;51.21
47430;BME280;33181;49.246;7.372;2023-09-19T12:26:41;98709.19;;;22.24;52.04
47430;BME280;33181;49.246;7.372;2023-09-19T12:31:56;98706.63;;;22.09;53.10
47430;BME280;33181;49.246;7.372;2023-09-19T12:34:32;98699.63;;;22.08;52.68
47430;BME280;33181;49.246;7.372;2023-09-19T12:37:10;98699.25;;;22.11;52.10
47430;BME280;33181;49.246;7.372;2023-09-19T12:39:50;98702.03;;;21.96;51.29
47430;BME280;33181;49.246;7.372;2023-09-19T12:42:26;98688.88;;;22.36;51.98
47430;BME280;33181;49.246;7.372;2023-09-19T12:44:56;98698.44;;;22.79;51.38
47430;BME280;33181;49.246;7.372;2023-09-19T12:47:24;98690.81;;;22.76;49.68
47430;BME280;33181;49.246;7.372;2023-09-19T12:50:12;98693.28;;;22.71;50.13
47430;BME280;33181;49.246;7.372;2023-09-19T12:52:52;98688.88;;;22.43;50.80
47430;BME280;33181;49.246;7.372;2023-09-19T12:58:13;98684.28;;;22.17;51.94
47430;BME280;33181;49.246;7.372;2023-09-19T13:00:45;98686.34;;;22.21;50.91
47430;BME280;33181;49.246;7.372;2023-09-19T13:03:26;98686.63;;;22.47;52.22
47430;BME280;33181;49.246;7.372;2023-09-19T13:06:03;98680.69;;;22.51;50.65
47430;BME280;33181;49.246;7.372;2023-09-19T13:08:37;98675.75;;;22.61;50.52
47430;BME280;33181;49.246;7.372;2023-09-19T13:11:14;98672.19;;;22.41;52.79
47430;BME280;33181;49.246;7.372;2023-09-19T13:14:13;98671.19;;;22.42;52.02
47430;BME280;33181;49.246;7.372;2023-09-19T13:19:42;98677.50;;;22.21;53.52
47430;BME280;33181;49.246;7.372;2023-09-19T13:22:44;98663.50;;;22.26;52.23
47430;BME280;33181;49.246;7.372;2023-09-19T13:25:20;98677.13;;;22.37;53.29
47430;BME280;33181;49.246;7.372;2023-09-19T13:27:52;98672.44;;;22.53;52.72
47430;BME280;33181;49.246;7.372;2023-09-19T13:30:20;98675.75;;;22.68;51.99
47430;BME280;33181;49.246;7.372;2023-09-19T13:32:47;98673.13;;;22.13;52.43
47430;BME280;33181;49.246;7.372;2023-09-19T13:35:17;98670.13;;;22.36;52.45
47430;BME280;33181;49.246;7.372;2023-09-19T13:37:43;98669.34;;;22.56;52.21
47430;BME280;33181;49.246;7.372;2023-09-19T13:40:14;98675.59;;;22.76;52.64
47430;BME280;33181;49.246;7.372;2023-09-19T13:42:41;98672.50;;;22.86;51.97
47430;BME280;33181;49.246;7.372;2023-09-19T13:45:08;98668.16;;;22.91;52.58
47430;BME280;33181;49.246;7.372;2023-09-19T13:47:40;98663.19;;;22.88;51.65
47430;BME280;33181;49.246;7.372;2023-09-19T13:50:06;98663.19;;;22.82;52.40
47430;BME280;33181;49.246;7.372;2023-09-19T13:52:33;98655.97;;;22.69;52.61
47430;BME280;33181;49.246;7.372;2023-09-19T13:55:00;98659.03;;;22.46;52.87
47430;BME280;33181;49.246;7.372;2023-09-19T13:57:26;98657.16;;;22.33;52.90
47430;BME280;33181;49.246;7.372;2023-09-19T13:59:53;98647.63;;;22.17;53.37
47430;BME280;33181;49.246;7.372;2023-09-19T14:02:22;98644.75;;;22.19;54.89